This is the latest recevied weather packets stored in our database for station/object WM1X. If no packets are shown the sender has not sent any weather packets the latest 10 day(s).
| Time | Temp. | Humidity | Pressure | Rain* | Wind** | Luminosity | Snow |
|---|---|---|---|---|---|---|---|
| 1777225504 | 13.89° C | 43% | 1020.7 hPa | 0 mm | - | - | - |
| 1777222504 | 13.33° C | 43% | 1020.8 hPa | 0 mm | - | - | - |
| 1777217104 | 12.22° C | 46% | 1021.1 hPa | 0 mm | - | - | - |
| 1777212303 | 11.11° C | 50% | 1021.3 hPa | 0 mm | - | - | - |
| 1777209904 | 10.56° C | 52% | 1020.8 hPa | 0 mm | - | - | - |
| 1777208704 | 10° C | 54% | 1020.7 hPa | 0 mm | - | - | - |
| 1777203304 | 5.56° C | 90% | 1020 hPa | 0 mm | - | - | - |
| 1777194904 | 3.89° C | 88% | 1018.5 hPa | 0 mm | - | - | - |
| 1777191904 | 5° C | 85% | 1018.2 hPa | 0 mm | - | - | - |
| 1777190705 | 5.56° C | 83% | 1018.2 hPa | 0 mm | - | - | - |
| 1777187703 | 5.56° C | 83% | 1017.8 hPa | 0 mm | - | - | - |
| 1777184704 | 5.56° C | 85% | 1017.7 hPa | 0 mm | - | - | - |
| 1777174504 | 4.44° C | 74% | 1018.4 hPa | 0 mm | - | - | - |
| 1777171504 | 5° C | 71% | 1018.3 hPa | 0 mm | - | - | - |
| 1777170304 | 5° C | 71% | 1018.7 hPa | 0 mm | - | - | - |
| 1777167904 | 5.56° C | 68% | 1018.9 hPa | 0 mm | - | - | - |
| 1777165504 | 6.67° C | 62% | 1018.5 hPa | 0 mm | - | - | - |
| 1777164304 | 7.78° C | 58% | 1018.1 hPa | 0 mm | - | - | - |
| 1777161904 | 8.33° C | 55% | 1017.5 hPa | 0 mm | - | - | - |
| 1777159504 | 9.44° C | 52% | 1016.9 hPa | 0 mm | - | - | - |
| 1777155904 | 10° C | 48% | 1016.7 hPa | 0 mm | - | - | - |
| 1777154104 | 10.56° C | 48% | 1016.6 hPa | 0 mm | - | - | - |
| 1777153504 | 10.56° C | 46% | 1016.6 hPa | 0 mm | - | - | - |
| 1777150505 | 10.56° C | 45% | 1016.5 hPa | 0 mm | - | - | - |
| 1777142103 | 10° C | 47% | 1017.2 hPa | 0 mm | - | - | - |
* Rain latest hour (hover to see other rain measurements)
** Current wind speed in m/s (hover to see current wind gust speed)